Green Bay, Wisconsin
Current Conditions -  °F | °C
As of 7:53 PM on Wednesday 22 Oct 2014 (Local Time) from KGRB Reporting Station
Clear Clear  
Wind Chill: 36°   Ceiling: Unl
Heat Index: 41°   Visibility: 10mi
Dew Point: 37°   Wind: 7mph
Humidity: 86%   Direction: 150°SSE
Pressure: 30.26"   Gusts: NA
Location:  44.51°N, 88.01°W
Report Text: KGRB 230053Z 15006KT 10SM CLR 05/03 A3026 RMK AO2 SLP256 T00500028
Loading
Personal Weather Stations






























Interactive Weather Map
Tropical Storm Tracking
New forecast layout! Learn more

10-Day Weather Forecast

Advertisements
Track Severe Weather on mobile